Terminal Aerodrome Forecast
Issued by NWS Sterling, VA

Current Version | Previous Version | Graphics & Text | Print | Product List | Glossary On
Versions: 1 2 3 4 5 6 7 8 9 10 11 12 13 14 15 16 17 18 19 20 21 22 23 24 25 26 27 28
583
FTUS41 KLWX 230858 AAA
TAFIAD
TAF AMD
KIAD 230858Z 2309/2412 08011G30KT 5SM -DZ OVC005
     FM231200 06016G30KT 1SM RA BR OVC005
     FM231700 07013G24KT 1SM RA BR OVC005 WS020/07040KT
     FM240300 36007KT 3SM -SHRA OVC010=

USA.gov is the U.S. government's official web portal to all federal, state and local government web resources and services.